sensor_id;sensor_type;location;lat;lon;timestamp;temperature;humidity
69595;DHT22;56800;52.142;5.364;2023-10-09T00:02:08;15.60;81.80
69595;DHT22;56800;52.142;5.364;2023-10-09T00:04:40;15.70;81.90
69595;DHT22;56800;52.142;5.364;2023-10-09T00:07:12;15.70;81.80
69595;DHT22;56800;52.142;5.364;2023-10-09T00:09:39;15.70;81.70
69595;DHT22;56800;52.142;5.364;2023-10-09T00:12:18;15.70;81.60
69595;DHT22;56800;52.142;5.364;2023-10-09T00:14:52;15.70;81.60
69595;DHT22;56800;52.142;5.364;2023-10-09T00:17:23;15.70;81.60
69595;DHT22;56800;52.142;5.364;2023-10-09T00:19:51;15.70;81.50
69595;DHT22;56800;52.142;5.364;2023-10-09T00:22:18;15.80;81.50
69595;DHT22;56800;52.142;5.364;2023-10-09T00:24:56;15.70;81.40
69595;DHT22;56800;52.142;5.364;2023-10-09T00:27:42;15.70;81.40
69595;DHT22;56800;52.142;5.364;2023-10-09T00:30:11;15.80;81.30
69595;DHT22;56800;52.142;5.364;2023-10-09T00:32:42;15.80;81.30
69595;DHT22;56800;52.142;5.364;2023-10-09T00:35:21;15.80;81.20
69595;DHT22;56800;52.142;5.364;2023-10-09T00:38:04;15.80;81.20
69595;DHT22;56800;52.142;5.364;2023-10-09T00:40:48;15.80;81.10
69595;DHT22;56800;52.142;5.364;2023-10-09T00:43:23;15.70;81.10
69595;DHT22;56800;52.142;5.364;2023-10-09T00:45:55;15.70;81.10
69595;DHT22;56800;52.142;5.364;2023-10-09T00:48:23;15.80;81.20
69595;DHT22;56800;52.142;5.364;2023-10-09T00:51:00;15.70;81.10
69595;DHT22;56800;52.142;5.364;2023-10-09T00:53:27;15.70;81.10
69595;DHT22;56800;52.142;5.364;2023-10-09T00:56:02;15.70;81.10
69595;DHT22;56800;52.142;5.364;2023-10-09T00:58:47;15.80;81.20
69595;DHT22;56800;52.142;5.364;2023-10-09T01:01:16;15.80;81.20
69595;DHT22;56800;52.142;5.364;2023-10-09T01:03:43;15.80;81.20
69595;DHT22;56800;52.142;5.364;2023-10-09T01:06:17;15.80;81.20
69595;DHT22;56800;52.142;5.364;2023-10-09T01:08:48;15.90;81.20
69595;DHT22;56800;52.142;5.364;2023-10-09T01:11:23;15.80;81.10
69595;DHT22;56800;52.142;5.364;2023-10-09T01:13:56;15.90;81.10
69595;DHT22;56800;52.142;5.364;2023-10-09T01:16:35;15.90;81.10
69595;DHT22;56800;52.142;5.364;2023-10-09T01:19:02;15.90;81.00
69595;DHT22;56800;52.142;5.364;2023-10-09T01:21:39;15.90;81.00
69595;DHT22;56800;52.142;5.364;2023-10-09T01:24:06;16.00;81.00
69595;DHT22;56800;52.142;5.364;2023-10-09T01:26:37;16.00;80.90
69595;DHT22;56800;52.142;5.364;2023-10-09T01:29:15;16.00;80.90
69595;DHT22;56800;52.142;5.364;2023-10-09T01:31:48;16.00;80.90
69595;DHT22;56800;52.142;5.364;2023-10-09T01:34:32;16.00;80.80
69595;DHT22;56800;52.142;5.364;2023-10-09T01:37:06;16.00;80.80
69595;DHT22;56800;52.142;5.364;2023-10-09T01:39:39;16.10;80.80
69595;DHT22;56800;52.142;5.364;2023-10-09T01:42:09;16.10;80.70
69595;DHT22;56800;52.142;5.364;2023-10-09T01:44:37;16.10;80.70
69595;DHT22;56800;52.142;5.364;2023-10-09T01:47:10;16.10;80.70
69595;DHT22;56800;52.142;5.364;2023-10-09T01:49:45;16.20;80.70
69595;DHT22;56800;52.142;5.364;2023-10-09T01:52:16;16.20;80.70
69595;DHT22;56800;52.142;5.364;2023-10-09T01:54:44;16.20;80.70
69595;DHT22;56800;52.142;5.364;2023-10-09T01:57:17;16.20;80.50
69595;DHT22;56800;52.142;5.364;2023-10-09T01:59:51;16.20;80.60
69595;DHT22;56800;52.142;5.364;2023-10-09T02:02:22;16.20;80.60
69595;DHT22;56800;52.142;5.364;2023-10-09T02:05:07;16.20;80.60
69595;DHT22;56800;52.142;5.364;2023-10-09T02:07:40;16.30;80.60
69595;DHT22;56800;52.142;5.364;2023-10-09T02:10:13;16.20;80.50
69595;DHT22;56800;52.142;5.364;2023-10-09T02:13:00;16.20;80.40
69595;DHT22;56800;52.142;5.364;2023-10-09T02:15:35;16.30;80.50
69595;DHT22;56800;52.142;5.364;2023-10-09T02:18:15;16.30;80.50
69595;DHT22;56800;52.142;5.364;2023-10-09T02:23:34;16.30;80.40
69595;DHT22;56800;52.142;5.364;2023-10-09T02:26:04;16.30;80.30
69595;DHT22;56800;52.142;5.364;2023-10-09T02:28:32;16.30;80.30
69595;DHT22;56800;52.142;5.364;2023-10-09T02:31:10;16.30;80.40
69595;DHT22;56800;52.142;5.364;2023-10-09T02:33:37;16.30;80.30
69595;DHT22;56800;52.142;5.364;2023-10-09T02:36:06;16.30;80.30
69595;DHT22;56800;52.142;5.364;2023-10-09T02:38:34;16.30;80.30
69595;DHT22;56800;52.142;5.364;2023-10-09T02:41:07;16.30;80.40
69595;DHT22;56800;52.142;5.364;2023-10-09T02:43:39;16.40;80.40
69595;DHT22;56800;52.142;5.364;2023-10-09T02:50:34;16.40;80.50
69595;DHT22;56800;52.142;5.364;2023-10-09T02:54:22;16.40;80.50
69595;DHT22;56800;52.142;5.364;2023-10-09T02:58:19;16.40;80.50
69595;DHT22;56800;52.142;5.364;2023-10-09T03:01:51;16.40;80.50
69595;DHT22;56800;52.142;5.364;2023-10-09T03:05:54;16.50;80.60
69595;DHT22;56800;52.142;5.364;2023-10-09T03:09:44;16.40;80.50
69595;DHT22;56800;52.142;5.364;2023-10-09T03:13:43;16.50;80.60
69595;DHT22;56800;52.142;5.364;2023-10-09T03:16:38;16.50;80.60
69595;DHT22;56800;52.142;5.364;2023-10-09T03:19:05;16.50;80.60
69595;DHT22;56800;52.142;5.364;2023-10-09T03:21:32;16.50;80.60
69595;DHT22;56800;52.142;5.364;2023-10-09T03:23:59;16.60;80.70
69595;DHT22;56800;52.142;5.364;2023-10-09T03:26:31;16.60;80.70
69595;DHT22;56800;52.142;5.364;2023-10-09T03:28:58;16.60;80.60
69595;DHT22;56800;52.142;5.364;2023-10-09T03:31:28;16.60;80.60
69595;DHT22;56800;52.142;5.364;2023-10-09T03:33:59;16.60;80.60
69595;DHT22;56800;52.142;5.364;2023-10-09T03:36:25;16.60;80.60
69595;DHT22;56800;52.142;5.364;2023-10-09T03:38:57;16.60;80.50
69595;DHT22;56800;52.142;5.364;2023-10-09T03:41:27;16.70;80.60
69595;DHT22;56800;52.142;5.364;2023-10-09T03:43:55;16.70;80.50
69595;DHT22;56800;52.142;5.364;2023-10-09T03:46:22;16.70;80.50
69595;DHT22;56800;52.142;5.364;2023-10-09T03:48:53;16.70;80.50
69595;DHT22;56800;52.142;5.364;2023-10-09T03:51:23;16.70;80.50
69595;DHT22;56800;52.142;5.364;2023-10-09T03:53:51;16.70;80.60
69595;DHT22;56800;52.142;5.364;2023-10-09T03:56:21;16.70;80.60
69595;DHT22;56800;52.142;5.364;2023-10-09T03:58:49;16.70;80.60
69595;DHT22;56800;52.142;5.364;2023-10-09T04:01:17;16.70;80.60
69595;DHT22;56800;52.142;5.364;2023-10-09T04:04:20;16.70;80.70
69595;DHT22;56800;52.142;5.364;2023-10-09T04:08:14;16.70;80.70
69595;DHT22;56800;52.142;5.364;2023-10-09T04:12:34;16.70;80.70
69595;DHT22;56800;52.142;5.364;2023-10-09T04:16:24;16.80;80.80
69595;DHT22;56800;52.142;5.364;2023-10-09T04:19:50;16.80;80.80
69595;DHT22;56800;52.142;5.364;2023-10-09T04:22:37;16.80;80.70
69595;DHT22;56800;52.142;5.364;2023-10-09T04:25:52;16.80;80.70
69595;DHT22;56800;52.142;5.364;2023-10-09T04:29:29;16.80;80.80
69595;DHT22;56800;52.142;5.364;2023-10-09T04:33:32;16.80;80.80
69595;DHT22;56800;52.142;5.364;2023-10-09T04:37:06;16.90;80.80
69595;DHT22;56800;52.142;5.364;2023-10-09T04:40:36;16.90;80.70
69595;DHT22;56800;52.142;5.364;2023-10-09T04:43:12;16.90;80.80
69595;DHT22;56800;52.142;5.364;2023-10-09T04:45:48;16.90;80.80
69595;DHT22;56800;52.142;5.364;2023-10-09T04:48:33;17.00;80.90
69595;DHT22;56800;52.142;5.364;2023-10-09T04:51:05;17.00;80.90
69595;DHT22;56800;52.142;5.364;2023-10-09T04:53:48;17.00;81.00
69595;DHT22;56800;52.142;5.364;2023-10-09T04:56:27;17.00;80.90
69595;DHT22;56800;52.142;5.364;2023-10-09T04:58:59;17.10;81.00
69595;DHT22;56800;52.142;5.364;2023-10-09T05:01:35;17.10;80.90
69595;DHT22;56800;52.142;5.364;2023-10-09T05:04:11;17.10;80.90
69595;DHT22;56800;52.142;5.364;2023-10-09T05:06:58;17.20;80.90
69595;DHT22;56800;52.142;5.364;2023-10-09T05:09:25;17.20;80.80
69595;DHT22;56800;52.142;5.364;2023-10-09T05:11:54;17.20;80.80
69595;DHT22;56800;52.142;5.364;2023-10-09T05:14:26;17.20;80.70
69595;DHT22;56800;52.142;5.364;2023-10-09T05:16:54;17.20;80.70
69595;DHT22;56800;52.142;5.364;2023-10-09T05:19:22;17.30;80.70
69595;DHT22;56800;52.142;5.364;2023-10-09T05:22:11;17.30;80.70
69595;DHT22;56800;52.142;5.364;2023-10-09T05:24:57;17.40;80.70
69595;DHT22;56800;52.142;5.364;2023-10-09T05:27:25;17.40;80.70
69595;DHT22;56800;52.142;5.364;2023-10-09T05:30:10;17.40;80.60
69595;DHT22;56800;52.142;5.364;2023-10-09T05:33:25;17.40;80.50
69595;DHT22;56800;52.142;5.364;2023-10-09T05:39:47;17.50;80.40
69595;DHT22;56800;52.142;5.364;2023-10-09T05:42:35;17.50;80.40
69595;DHT22;56800;52.142;5.364;2023-10-09T05:45:05;17.50;80.40
69595;DHT22;56800;52.142;5.364;2023-10-09T05:47:53;17.50;80.30
69595;DHT22;56800;52.142;5.364;2023-10-09T05:50:21;17.50;80.40
69595;DHT22;56800;52.142;5.364;2023-10-09T05:52:49;17.50;80.30
69595;DHT22;56800;52.142;5.364;2023-10-09T05:55:22;17.50;80.30
69595;DHT22;56800;52.142;5.364;2023-10-09T05:58:08;17.50;80.30
69595;DHT22;56800;52.142;5.364;2023-10-09T06:00:35;17.50;80.30
69595;DHT22;56800;52.142;5.364;2023-10-09T06:03:21;17.50;80.30
69595;DHT22;56800;52.142;5.364;2023-10-09T06:05:50;17.60;80.30
69595;DHT22;56800;52.142;5.364;2023-10-09T06:08:29;17.50;80.20
69595;DHT22;56800;52.142;5.364;2023-10-09T06:11:12;17.60;80.20
69595;DHT22;56800;52.142;5.364;2023-10-09T06:14:05;17.60;80.20
69595;DHT22;56800;52.142;5.364;2023-10-09T06:16:40;17.60;80.20
69595;DHT22;56800;52.142;5.364;2023-10-09T06:19:26;17.60;80.20
69595;DHT22;56800;52.142;5.364;2023-10-09T06:21:57;17.60;80.10
69595;DHT22;56800;52.142;5.364;2023-10-09T06:24:31;17.60;80.10
69595;DHT22;56800;52.142;5.364;2023-10-09T06:27:21;17.70;80.20
69595;DHT22;56800;52.142;5.364;2023-10-09T06:29:58;17.70;80.00
69595;DHT22;56800;52.142;5.364;2023-10-09T06:32:42;17.70;80.00
69595;DHT22;56800;52.142;5.364;2023-10-09T06:35:35;17.70;80.00
69595;DHT22;56800;52.142;5.364;2023-10-09T06:38:03;17.70;80.00
69595;DHT22;56800;52.142;5.364;2023-10-09T06:40:35;17.70;80.00
69595;DHT22;56800;52.142;5.364;2023-10-09T06:43:21;17.70;80.00
69595;DHT22;56800;52.142;5.364;2023-10-09T06:45:48;17.70;79.90
69595;DHT22;56800;52.142;5.364;2023-10-09T06:48:22;17.70;79.90
69595;DHT22;56800;52.142;5.364;2023-10-09T06:51:09;17.80;80.00
69595;DHT22;56800;52.142;5.364;2023-10-09T06:53:35;17.80;80.00
69595;DHT22;56800;52.142;5.364;2023-10-09T06:56:22;17.80;80.00
69595;DHT22;56800;52.142;5.364;2023-10-09T06:59:09;17.80;80.00
69595;DHT22;56800;52.142;5.364;2023-10-09T07:01:42;17.80;80.00
69595;DHT22;56800;52.142;5.364;2023-10-09T07:04:13;17.80;80.00
69595;DHT22;56800;52.142;5.364;2023-10-09T07:06:48;17.80;80.00
69595;DHT22;56800;52.142;5.364;2023-10-09T07:09:15;17.80;80.70
69595;DHT22;56800;52.142;5.364;2023-10-09T07:11:49;17.80;80.00
69595;DHT22;56800;52.142;5.364;2023-10-09T07:14:21;17.80;80.00
69595;DHT22;56800;52.142;5.364;2023-10-09T07:17:04;17.80;80.00
69595;DHT22;56800;52.142;5.364;2023-10-09T07:19:44;17.80;80.00
69595;DHT22;56800;52.142;5.364;2023-10-09T07:22:14;17.80;80.00
69595;DHT22;56800;52.142;5.364;2023-10-09T07:24:47;17.80;80.00
69595;DHT22;56800;52.142;5.364;2023-10-09T07:27:24;17.90;80.00
69595;DHT22;56800;52.142;5.364;2023-10-09T07:30:15;17.90;79.90
69595;DHT22;56800;52.142;5.364;2023-10-09T07:33:02;17.90;80.00
69595;DHT22;56800;52.142;5.364;2023-10-09T07:35:48;17.90;79.90
69595;DHT22;56800;52.142;5.364;2023-10-09T07:38:22;17.90;79.90
69595;DHT22;56800;52.142;5.364;2023-10-09T07:40:51;17.90;80.00
69595;DHT22;56800;52.142;5.364;2023-10-09T07:43:23;17.90;80.10
69595;DHT22;56800;52.142;5.364;2023-10-09T07:45:55;17.90;80.10
69595;DHT22;56800;52.142;5.364;2023-10-09T07:48:25;17.90;80.10
69595;DHT22;56800;52.142;5.364;2023-10-09T07:50:52;18.00;80.10
69595;DHT22;56800;52.142;5.364;2023-10-09T07:53:24;18.00;80.20
69595;DHT22;56800;52.142;5.364;2023-10-09T07:55:54;18.00;80.10
69595;DHT22;56800;52.142;5.364;2023-10-09T07:58:22;18.10;80.20
69595;DHT22;56800;52.142;5.364;2023-10-09T08:00:56;18.20;80.30
69595;DHT22;56800;52.142;5.364;2023-10-09T08:03:43;18.20;80.30
69595;DHT22;56800;52.142;5.364;2023-10-09T08:06:16;18.20;80.20
69595;DHT22;56800;52.142;5.364;2023-10-09T08:09:02;18.30;80.10
69595;DHT22;56800;52.142;5.364;2023-10-09T08:11:30;18.30;80.00
69595;DHT22;56800;52.142;5.364;2023-10-09T08:14:10;18.30;80.00
69595;DHT22;56800;52.142;5.364;2023-10-09T08:16:55;18.40;80.00
69595;DHT22;56800;52.142;5.364;2023-10-09T08:19:47;18.30;79.90
69595;DHT22;56800;52.142;5.364;2023-10-09T08:22:27;18.40;79.80
69595;DHT22;56800;52.142;5.364;2023-10-09T08:25:12;18.40;79.80
69595;DHT22;56800;52.142;5.364;2023-10-09T08:28:00;18.40;79.80
69595;DHT22;56800;52.142;5.364;2023-10-09T08:30:46;18.50;79.70
69595;DHT22;56800;52.142;5.364;2023-10-09T08:33:17;18.50;79.60
69595;DHT22;56800;52.142;5.364;2023-10-09T08:35:56;18.50;79.50
69595;DHT22;56800;52.142;5.364;2023-10-09T08:38:32;18.60;79.50
69595;DHT22;56800;52.142;5.364;2023-10-09T08:41:12;18.60;79.50
69595;DHT22;56800;52.142;5.364;2023-10-09T08:43:51;18.70;79.40
69595;DHT22;56800;52.142;5.364;2023-10-09T08:48:50;18.70;79.20
69595;DHT22;56800;52.142;5.364;2023-10-09T08:51:17;18.70;79.20
69595;DHT22;56800;52.142;5.364;2023-10-09T08:53:45;18.80;79.10
69595;DHT22;56800;52.142;5.364;2023-10-09T08:56:13;18.90;79.10
69595;DHT22;56800;52.142;5.364;2023-10-09T08:58:58;18.90;79.00
69595;DHT22;56800;52.142;5.364;2023-10-09T09:01:29;18.90;78.70
69595;DHT22;56800;52.142;5.364;2023-10-09T09:03:59;19.00;78.70
69595;DHT22;56800;52.142;5.364;2023-10-09T09:06:39;19.00;78.80
69595;DHT22;56800;52.142;5.364;2023-10-09T09:09:12;19.00;78.60
69595;DHT22;56800;52.142;5.364;2023-10-09T09:11:42;19.10;78.50
69595;DHT22;56800;52.142;5.364;2023-10-09T09:14:15;19.10;78.50
69595;DHT22;56800;52.142;5.364;2023-10-09T09:16:49;19.10;78.40
69595;DHT22;56800;52.142;5.364;2023-10-09T09:19:16;19.20;78.30
69595;DHT22;56800;52.142;5.364;2023-10-09T09:21:51;19.30;78.40
69595;DHT22;56800;52.142;5.364;2023-10-09T09:24:25;19.30;78.30
69595;DHT22;56800;52.142;5.364;2023-10-09T09:26:54;19.40;78.20
69595;DHT22;56800;52.142;5.364;2023-10-09T09:32:13;19.60;78.10
69595;DHT22;56800;52.142;5.364;2023-10-09T09:34:51;19.70;77.90
69595;DHT22;56800;52.142;5.364;2023-10-09T09:37:27;19.90;77.40
69595;DHT22;56800;52.142;5.364;2023-10-09T09:40:20;19.90;76.90
69595;DHT22;56800;52.142;5.364;2023-10-09T09:43:08;19.90;76.90
69595;DHT22;56800;52.142;5.364;2023-10-09T09:45:48;19.90;76.70
69595;DHT22;56800;52.142;5.364;2023-10-09T09:48:17;19.90;76.60
69595;DHT22;56800;52.142;5.364;2023-10-09T09:50:44;19.90;76.60
69595;DHT22;56800;52.142;5.364;2023-10-09T09:53:12;20.00;76.50
69595;DHT22;56800;52.142;5.364;2023-10-09T09:55:51;20.00;76.60
69595;DHT22;56800;52.142;5.364;2023-10-09T09:58:25;20.00;76.40
69595;DHT22;56800;52.142;5.364;2023-10-09T10:01:04;20.00;76.30
69595;DHT22;56800;52.142;5.364;2023-10-09T10:03:56;20.10;76.40
69595;DHT22;56800;52.142;5.364;2023-10-09T10:06:25;20.10;76.40
69595;DHT22;56800;52.142;5.364;2023-10-09T10:08:55;20.10;76.40
69595;DHT22;56800;52.142;5.364;2023-10-09T10:11:51;20.20;76.30
69595;DHT22;56800;52.142;5.364;2023-10-09T10:14:21;20.20;76.00
69595;DHT22;56800;52.142;5.364;2023-10-09T10:17:05;20.20;75.90
69595;DHT22;56800;52.142;5.364;2023-10-09T10:20:03;20.20;75.70
69595;DHT22;56800;52.142;5.364;2023-10-09T10:22:46;20.20;75.80
69595;DHT22;56800;52.142;5.364;2023-10-09T10:28:22;20.20;75.50
69595;DHT22;56800;52.142;5.364;2023-10-09T10:31:02;20.20;75.60
69595;DHT22;56800;52.142;5.364;2023-10-09T10:36:21;20.30;75.30
69595;DHT22;56800;52.142;5.364;2023-10-09T10:41:36;20.30;75.10
69595;DHT22;56800;52.142;5.364;2023-10-09T10:44:31;20.30;75.10
69595;DHT22;56800;52.142;5.364;2023-10-09T10:47:07;20.40;74.90
69595;DHT22;56800;52.142;5.364;2023-10-09T10:49:53;20.40;74.50
69595;DHT22;56800;52.142;5.364;2023-10-09T10:52:27;20.40;74.30
69595;DHT22;56800;52.142;5.364;2023-10-09T10:55:13;20.40;74.30
69595;DHT22;56800;52.142;5.364;2023-10-09T10:57:49;20.50;74.40
69595;DHT22;56800;52.142;5.364;2023-10-09T11:00:55;20.60;74.50
69595;DHT22;56800;52.142;5.364;2023-10-09T11:03:25;20.60;74.30
69595;DHT22;56800;52.142;5.364;2023-10-09T11:06:12;20.70;74.20
69595;DHT22;56800;52.142;5.364;2023-10-09T11:08:45;20.70;74.10
69595;DHT22;56800;52.142;5.364;2023-10-09T11:11:22;20.80;74.00
69595;DHT22;56800;52.142;5.364;2023-10-09T11:13:49;20.80;73.60
69595;DHT22;56800;52.142;5.364;2023-10-09T11:16:24;20.80;73.30
69595;DHT22;56800;52.142;5.364;2023-10-09T11:19:14;20.90;73.20
69595;DHT22;56800;52.142;5.364;2023-10-09T11:21:55;20.90;72.90
69595;DHT22;56800;52.142;5.364;2023-10-09T11:24:27;21.00;72.90
69595;DHT22;56800;52.142;5.364;2023-10-09T11:27:05;21.00;72.40
69595;DHT22;56800;52.142;5.364;2023-10-09T11:29:34;21.00;72.40
69595;DHT22;56800;52.142;5.364;2023-10-09T11:32:18;21.00;72.40
69595;DHT22;56800;52.142;5.364;2023-10-09T11:34:46;21.10;72.20
69595;DHT22;56800;52.142;5.364;2023-10-09T11:37:20;21.00;71.80
69595;DHT22;56800;52.142;5.364;2023-10-09T11:39:57;21.10;71.80
69595;DHT22;56800;52.142;5.364;2023-10-09T11:42:28;21.10;71.80
69595;DHT22;56800;52.142;5.364;2023-10-09T11:45:06;21.10;71.60
69595;DHT22;56800;52.142;5.364;2023-10-09T11:47:56;21.10;71.60
69595;DHT22;56800;52.142;5.364;2023-10-09T11:50:47;21.10;71.50
69595;DHT22;56800;52.142;5.364;2023-10-09T11:53:28;21.10;71.40
69595;DHT22;56800;52.142;5.364;2023-10-09T11:55:55;21.10;71.60
69595;DHT22;56800;52.142;5.364;2023-10-09T11:58:22;21.10;71.50
69595;DHT22;56800;52.142;5.364;2023-10-09T12:00:57;21.10;71.40
69595;DHT22;56800;52.142;5.364;2023-10-09T12:03:26;21.10;71.40
69595;DHT22;56800;52.142;5.364;2023-10-09T12:06:01;21.10;71.40
69595;DHT22;56800;52.142;5.364;2023-10-09T12:08:32;21.10;71.50
69595;DHT22;56800;52.142;5.364;2023-10-09T12:10:59;21.10;71.70
69595;DHT22;56800;52.142;5.364;2023-10-09T12:13:30;21.20;71.90
69595;DHT22;56800;52.142;5.364;2023-10-09T12:15:57;21.20;71.80
69595;DHT22;56800;52.142;5.364;2023-10-09T12:18:24;21.30;71.80
69595;DHT22;56800;52.142;5.364;2023-10-09T12:20:51;21.30;71.70
69595;DHT22;56800;52.142;5.364;2023-10-09T12:23:20;21.30;71.60
69595;DHT22;56800;52.142;5.364;2023-10-09T12:25:51;21.30;72.40
69595;DHT22;56800;52.142;5.364;2023-10-09T12:28:18;21.30;71.60
69595;DHT22;56800;52.142;5.364;2023-10-09T12:30:47;21.30;71.60
69595;DHT22;56800;52.142;5.364;2023-10-09T12:33:18;21.30;71.50
69595;DHT22;56800;52.142;5.364;2023-10-09T12:35:46;21.30;71.50
69595;DHT22;56800;52.142;5.364;2023-10-09T12:38:14;21.20;71.50
69595;DHT22;56800;52.142;5.364;2023-10-09T12:40:45;21.20;71.60
69595;DHT22;56800;52.142;5.364;2023-10-09T12:43:19;21.20;71.70
69595;DHT22;56800;52.142;5.364;2023-10-09T12:45:48;21.20;71.70
69595;DHT22;56800;52.142;5.364;2023-10-09T12:48:15;21.20;71.70
69595;DHT22;56800;52.142;5.364;2023-10-09T12:50:42;21.20;71.70
69595;DHT22;56800;52.142;5.364;2023-10-09T12:53:11;21.20;71.70
69595;DHT22;56800;52.142;5.364;2023-10-09T12:55:40;21.20;71.80
69595;DHT22;56800;52.142;5.364;2023-10-09T12:58:11;21.20;71.90
69595;DHT22;56800;52.142;5.364;2023-10-09T13:00:47;21.20;71.80
69595;DHT22;56800;52.142;5.364;2023-10-09T13:03:17;21.10;71.60
69595;DHT22;56800;52.142;5.364;2023-10-09T13:08:28;21.00;71.60
69595;DHT22;56800;52.142;5.364;2023-10-09T13:11:02;21.00;71.70
69595;DHT22;56800;52.142;5.364;2023-10-09T13:13:38;21.00;71.70
69595;DHT22;56800;52.142;5.364;2023-10-09T13:16:13;20.90;71.80
69595;DHT22;56800;52.142;5.364;2023-10-09T13:21:18;20.90;72.00
69595;DHT22;56800;52.142;5.364;2023-10-09T13:23:45;20.90;72.00
69595;DHT22;56800;52.142;5.364;2023-10-09T13:26:17;20.90;72.00
69595;DHT22;56800;52.142;5.364;2023-10-09T13:28:59;20.90;71.90
69595;DHT22;56800;52.142;5.364;2023-10-09T13:31:26;20.80;71.90
69595;DHT22;56800;52.142;5.364;2023-10-09T13:33:54;20.80;71.70
69595;DHT22;56800;52.142;5.364;2023-10-09T13:36:25;20.80;71.90
69595;DHT22;56800;52.142;5.364;2023-10-09T13:39:06;20.70;71.80
69595;DHT22;56800;52.142;5.364;2023-10-09T13:44:34;20.70;72.00
69595;DHT22;56800;52.142;5.364;2023-10-09T13:47:04;20.70;72.00
69595;DHT22;56800;52.142;5.364;2023-10-09T13:49:35;20.70;72.00
69595;DHT22;56800;52.142;5.364;2023-10-09T13:52:09;20.70;72.00
69595;DHT22;56800;52.142;5.364;2023-10-09T13:54:36;20.70;72.00
69595;DHT22;56800;52.142;5.364;2023-10-09T13:57:03;20.80;72.00
69595;DHT22;56800;52.142;5.364;2023-10-09T13:59:35;20.80;71.80
69595;DHT22;56800;52.142;5.364;2023-10-09T14:02:03;20.80;71.80
69595;DHT22;56800;52.142;5.364;2023-10-09T14:04:37;20.80;71.80
69595;DHT22;56800;52.142;5.364;2023-10-09T14:07:04;20.80;71.80
69595;DHT22;56800;52.142;5.364;2023-10-09T14:09:32;20.70;71.80
69595;DHT22;56800;52.142;5.364;2023-10-09T14:12:06;20.70;71.70
69595;DHT22;56800;52.142;5.364;2023-10-09T14:14:37;20.70;71.60
69595;DHT22;56800;52.142;5.364;2023-10-09T14:17:09;20.70;71.60
69595;DHT22;56800;52.142;5.364;2023-10-09T14:19:40;20.70;71.60
69595;DHT22;56800;52.142;5.364;2023-10-09T14:22:15;20.70;71.70
69595;DHT22;56800;52.142;5.364;2023-10-09T14:24:43;20.60;71.70
69595;DHT22;56800;52.142;5.364;2023-10-09T14:27:15;20.60;71.80
69595;DHT22;56800;52.142;5.364;2023-10-09T14:29:45;20.60;71.80
69595;DHT22;56800;52.142;5.364;2023-10-09T14:32:12;20.60;71.80
69595;DHT22;56800;52.142;5.364;2023-10-09T14:34:43;20.60;71.80
69595;DHT22;56800;52.142;5.364;2023-10-09T14:37:20;20.60;71.80
69595;DHT22;56800;52.142;5.364;2023-10-09T14:39:47;20.50;71.80
69595;DHT22;56800;52.142;5.364;2023-10-09T14:42:17;20.50;71.80
69595;DHT22;56800;52.142;5.364;2023-10-09T14:44:44;20.50;71.90
69595;DHT22;56800;52.142;5.364;2023-10-09T14:47:14;20.50;72.00
69595;DHT22;56800;52.142;5.364;2023-10-09T14:49:42;20.50;72.80
69595;DHT22;56800;52.142;5.364;2023-10-09T14:52:15;20.40;72.10
69595;DHT22;56800;52.142;5.364;2023-10-09T14:54:46;20.40;72.20
69595;DHT22;56800;52.142;5.364;2023-10-09T14:57:14;20.40;72.10
69595;DHT22;56800;52.142;5.364;2023-10-09T14:59:41;20.40;72.10
69595;DHT22;56800;52.142;5.364;2023-10-09T15:02:10;20.40;72.30
69595;DHT22;56800;52.142;5.364;2023-10-09T15:04:39;20.40;72.30
69595;DHT22;56800;52.142;5.364;2023-10-09T15:07:06;20.40;72.30
69595;DHT22;56800;52.142;5.364;2023-10-09T15:09:34;20.40;72.30
69595;DHT22;56800;52.142;5.364;2023-10-09T15:12:02;20.40;72.40
69595;DHT22;56800;52.142;5.364;2023-10-09T15:14:33;20.40;72.30
69595;DHT22;56800;52.142;5.364;2023-10-09T15:17:00;20.40;72.30
69595;DHT22;56800;52.142;5.364;2023-10-09T15:19:27;20.30;72.30
69595;DHT22;56800;52.142;5.364;2023-10-09T15:21:58;20.30;72.50
69595;DHT22;56800;52.142;5.364;2023-10-09T15:24:26;20.30;72.60
69595;DHT22;56800;52.142;5.364;2023-10-09T15:26:54;20.30;72.70
69595;DHT22;56800;52.142;5.364;2023-10-09T15:29:26;20.30;72.80
69595;DHT22;56800;52.142;5.364;2023-10-09T15:31:59;20.30;72.90
69595;DHT22;56800;52.142;5.364;2023-10-09T15:34:32;20.30;73.00
69595;DHT22;56800;52.142;5.364;2023-10-09T15:37:02;20.30;73.10
69595;DHT22;56800;52.142;5.364;2023-10-09T15:39:34;20.30;73.10
69595;DHT22;56800;52.142;5.364;2023-10-09T15:42:01;20.30;73.00
69595;DHT22;56800;52.142;5.364;2023-10-09T15:44:34;20.40;73.00
69595;DHT22;56800;52.142;5.364;2023-10-09T15:47:04;20.40;73.00
69595;DHT22;56800;52.142;5.364;2023-10-09T15:49:35;20.30;73.00
69595;DHT22;56800;52.142;5.364;2023-10-09T15:52:08;20.30;73.00
69595;DHT22;56800;52.142;5.364;2023-10-09T15:54:35;20.30;73.00
69595;DHT22;56800;52.142;5.364;2023-10-09T15:57:02;20.30;73.20
69595;DHT22;56800;52.142;5.364;2023-10-09T15:59:39;20.30;73.20
69595;DHT22;56800;52.142;5.364;2023-10-09T16:02:06;20.30;73.30
69595;DHT22;56800;52.142;5.364;2023-10-09T16:04:32;20.20;73.30
69595;DHT22;56800;52.142;5.364;2023-10-09T16:07:01;20.20;73.40
69595;DHT22;56800;52.142;5.364;2023-10-09T16:09:27;20.20;73.50
69595;DHT22;56800;52.142;5.364;2023-10-09T16:11:56;20.20;73.60
69595;DHT22;56800;52.142;5.364;2023-10-09T16:14:23;20.20;73.70
69595;DHT22;56800;52.142;5.364;2023-10-09T16:16:50;20.20;73.70
69595;DHT22;56800;52.142;5.364;2023-10-09T16:19:17;20.20;73.80
69595;DHT22;56800;52.142;5.364;2023-10-09T16:21:44;20.10;73.80
69595;DHT22;56800;52.142;5.364;2023-10-09T16:24:11;20.10;73.80
69595;DHT22;56800;52.142;5.364;2023-10-09T16:26:39;20.10;73.90
69595;DHT22;56800;52.142;5.364;2023-10-09T16:29:07;20.10;74.80
69595;DHT22;56800;52.142;5.364;2023-10-09T16:31:36;20.10;74.10
69595;DHT22;56800;52.142;5.364;2023-10-09T16:34:07;20.10;74.10
69595;DHT22;56800;52.142;5.364;2023-10-09T16:36:34;20.10;74.10
69595;DHT22;56800;52.142;5.364;2023-10-09T16:39:02;20.00;74.20
69595;DHT22;56800;52.142;5.364;2023-10-09T16:41:29;20.00;74.30
69595;DHT22;56800;52.142;5.364;2023-10-09T16:44:07;20.00;74.30
69595;DHT22;56800;52.142;5.364;2023-10-09T16:46:36;20.00;74.30
69595;DHT22;56800;52.142;5.364;2023-10-09T16:49:06;19.90;74.30
69595;DHT22;56800;52.142;5.364;2023-10-09T16:51:35;19.90;74.40
69595;DHT22;56800;52.142;5.364;2023-10-09T16:54:01;19.90;74.40
69595;DHT22;56800;52.142;5.364;2023-10-09T16:56:29;19.80;74.40
69595;DHT22;56800;52.142;5.364;2023-10-09T16:59:00;19.80;74.50
69595;DHT22;56800;52.142;5.364;2023-10-09T17:01:27;19.70;74.60
69595;DHT22;56800;52.142;5.364;2023-10-09T17:03:55;19.70;74.60